Tiona, New York
Current Conditions -  °F | °C
As of 12:53 PM on Thursday 23 Oct 2014 (Local Time) from KBGM Reporting Station
Overcast Overcast  
Wind Chill: 40°   Ceiling: 1500
Heat Index: 47°   Visibility: 10mi
Dew Point: 40°   Wind: 18mph
Humidity: 77%   Direction: 350°N
Pressure: 29.88"   Gusts: 29mph
Location:  42.2341°N, 76.1713°W
Report Text: KBGM 231653Z 35016G25KT 10SM OVC015 08/04 A2988 RMK AO2 PK WND 35027/1642 SLP126 T00830044
Loading
Personal Weather Stations






























Interactive Weather Map New forecast layout! Learn more

10-Day Weather Forecast

Advertisements
Track Severe Weather on mobile